Time;durP1;ratioP1;P1;durP2;ratioP2;P2;SDS_P1;SDS_P2;PMS_P1;PMS_P2;Temp;Humidity;BMP_temperature;BMP_pressure;BME280_temperature;BME280_humidity;BME280_pressure;Samples;Min_cycle;Max_cycle;Signal;HPM_P1;HPM_P2
2024/03/16 00:00:57;;;;;;;0.57;0.57;;;17.40;47.90;;;;;;4971051;28;20539;-70
2024/03/16 00:03:26;;;;;;;1.02;1.00;;;17.40;47.80;;;;;;4983907;28;20061;-69
2024/03/16 00:05:55;;;;;;;3.83;1.13;;;17.40;47.90;;;;;;4999306;28;20061;-68
2024/03/16 00:08:23;;;;;;;5.93;1.27;;;17.50;48.00;;;;;;5011154;28;20057;-73
2024/03/16 00:10:52;;;;;;;2.95;0.90;;;17.50;48.00;;;;;;4990671;28;20054;-69
2024/03/16 00:13:20;;;;;;;1.05;0.88;;;17.50;48.00;;;;;;4975096;28;20049;-70
2024/03/16 00:15:49;;;;;;;1.23;0.95;;;17.50;47.90;;;;;;4996562;28;20603;-71
2024/03/16 00:18:18;;;;;;;2.40;1.20;;;17.50;47.90;;;;;;4981410;28;22177;-69
2024/03/16 00:20:47;;;;;;;1.30;1.00;;;17.60;47.80;;;;;;4981992;28;20921;-70
2024/03/16 00:23:15;;;;;;;1.60;1.33;;;17.60;47.70;;;;;;4976713;28;20045;-69
2024/03/16 00:25:43;;;;;;;2.22;1.35;;;17.60;47.70;;;;;;4996989;28;20057;-69
2024/03/16 00:28:12;;;;;;;2.22;1.23;;;17.60;47.60;;;;;;4996021;28;20408;-71
2024/03/16 00:30:41;;;;;;;0.77;0.73;;;17.60;47.60;;;;;;4995625;28;20088;-68
2024/03/16 00:33:09;;;;;;;4.93;1.10;;;17.60;47.80;;;;;;4986891;28;20088;-70
2024/03/16 00:35:38;;;;;;;2.40;1.30;;;17.60;47.60;;;;;;4997855;28;20066;-69
2024/03/16 00:38:06;;;;;;;2.72;1.48;;;17.70;47.60;;;;;;4997509;28;20469;-69
2024/03/16 00:40:35;;;;;;;3.72;1.10;;;17.70;47.60;;;;;;4995162;28;20062;-70
2024/03/16 00:43:04;;;;;;;1.38;1.02;;;17.80;47.60;;;;;;5006140;28;20056;-68
2024/03/16 00:45:32;;;;;;;1.30;0.85;;;17.80;47.50;;;;;;5008487;28;20100;-69
2024/03/16 00:48:04;;;;;;;3.08;1.25;;;17.60;47.50;;;;;;4980712;28;20045;-69
2024/03/16 00:50:32;;;;;;;1.67;1.33;;;17.40;47.80;;;;;;4995246;28;20124;-69
2024/03/16 00:53:01;;;;;;;1.30;1.20;;;17.30;48.10;;;;;;4989869;28;20512;-70
2024/03/16 00:55:29;;;;;;;3.58;1.05;;;17.30;48.20;;;;;;4992401;28;20416;-69
2024/03/16 00:58:00;;;;;;;1.17;1.10;;;17.30;48.20;;;;;;4998095;28;20434;-69
2024/03/16 01:00:30;;;;;;;1.27;1.00;;;17.30;48.20;;;;;;4979125;28;20041;-70
2024/03/16 01:02:59;;;;;;;2.55;1.35;;;17.40;48.20;;;;;;4988000;28;20140;-68
2024/03/16 01:05:28;;;;;;;4.03;1.75;;;17.40;48.10;;;;;;4994333;28;20076;-69
2024/03/16 01:07:57;;;;;;;6.32;1.42;;;17.50;48.10;;;;;;5000752;28;20053;-68
2024/03/16 01:10:25;;;;;;;2.17;1.27;;;17.40;48.00;;;;;;4998987;28;20056;-69
2024/03/16 01:12:56;;;;;;;6.25;1.58;;;17.40;48.20;;;;;;4994298;28;20069;-69
2024/03/16 01:15:24;;;;;;;11.10;3.35;;;17.40;48.20;;;;;;4977855;28;20060;-70
2024/03/16 01:17:53;;;;;;;16.55;5.68;;;17.40;48.10;;;;;;5017348;28;20135;-69
2024/03/16 01:20:22;;;;;;;107.18;32.00;;;17.40;48.10;;;;;;4999882;28;20055;-70
2024/03/16 01:22:55;;;;;;;3.83;1.92;;;17.40;48.20;;;;;;4994015;28;20463;-70
2024/03/16 01:25:23;;;;;;;69.10;20.80;;;17.40;48.20;;;;;;4992685;28;20057;-70
2024/03/16 01:27:52;;;;;;;3.65;1.90;;;17.50;48.10;;;;;;5000215;28;20057;-70
2024/03/16 01:30:21;;;;;;;3.97;1.67;;;17.50;48.00;;;;;;5016734;28;20042;-70
2024/03/16 01:32:50;;;;;;;1.83;1.30;;;17.50;48.00;;;;;;4996970;28;20049;-68
2024/03/16 01:35:20;;;;;;;1.30;0.80;;;17.50;48.00;;;;;;5000341;28;20061;-72
2024/03/16 01:37:51;;;;;;;12.18;1.25;;;17.50;48.70;;;;;;5016928;28;20191;-70
2024/03/16 01:40:24;;;;;;;79.57;21.73;;;17.40;48.20;;;;;;4985709;28;20045;-71
2024/03/16 01:42:55;;;;;;;2.40;1.70;;;17.40;48.30;;;;;;5001920;28;20054;-68
2024/03/16 01:45:23;;;;;;;2.38;1.02;;;17.40;48.40;;;;;;4994242;28;20056;-69
2024/03/16 01:47:54;;;;;;;1.95;1.00;;;17.40;48.20;;;;;;4983642;28;20077;-70
2024/03/16 01:50:23;;;;;;;2.83;1.38;;;17.30;48.20;;;;;;5001185;28;20071;-70
2024/03/16 01:53:00;;;;;;;1.70;1.10;;;17.30;48.40;;;;;;4993792;28;20057;-70
2024/03/16 01:55:29;;;;;;;0.85;0.80;;;17.30;48.50;;;;;;4976477;28;20061;-69
2024/03/16 01:57:58;;;;;;;2.38;1.60;;;17.20;48.50;;;;;;4995790;28;20703;-71
2024/03/16 02:00:27;;;;;;;2.28;1.40;;;17.20;48.60;;;;;;5016546;28;20058;-70
2024/03/16 02:02:56;;;;;;;1.33;1.20;;;17.20;48.60;;;;;;4979366;28;20053;-69
2024/03/16 02:05:25;;;;;;;1.77;1.35;;;17.10;48.60;;;;;;4982988;28;20060;-71
2024/03/16 02:07:54;;;;;;;1.40;1.17;;;17.10;48.60;;;;;;5013200;28;20049;-69
2024/03/16 02:10:22;;;;;;;9.65;1.45;;;17.20;48.70;;;;;;4998001;28;20136;-69
2024/03/16 02:12:51;;;;;;;29.60;9.65;;;17.20;48.70;;;;;;5013322;28;20603;-68
2024/03/16 02:15:20;;;;;;;1.35;1.20;;;17.20;48.70;;;;;;4996405;28;20065;-68
2024/03/16 02:17:50;;;;;;;3.30;0.95;;;17.20;48.70;;;;;;4997603;28;20053;-70
2024/03/16 02:20:19;;;;;;;1.60;1.30;;;17.20;48.70;;;;;;4996812;28;20081;-69
2024/03/16 02:22:49;;;;;;;3.58;1.33;;;17.20;48.70;;;;;;5008591;28;20057;-67
2024/03/16 02:25:19;;;;;;;2.30;1.42;;;17.20;48.70;;;;;;4996095;28;20045;-69
2024/03/16 02:27:47;;;;;;;2.22;1.50;;;17.20;48.80;;;;;;5018259;28;20049;-69
2024/03/16 02:30:15;;;;;;;2.45;1.63;;;17.10;48.90;;;;;;5001244;28;20071;-69
2024/03/16 02:32:43;;;;;;;1.85;1.20;;;17.10;48.90;;;;;;4993516;28;20057;-69
2024/03/16 02:35:12;;;;;;;2.22;1.60;;;17.00;48.90;;;;;;4987295;28;20092;-70
2024/03/16 02:37:41;;;;;;;5.10;1.35;;;17.00;49.00;;;;;;4996383;28;20085;-70
2024/03/16 02:40:11;;;;;;;4.75;1.90;;;16.90;49.00;;;;;;5001381;28;20069;-69
2024/03/16 02:42:40;;;;;;;2.33;1.48;;;16.90;49.20;;;;;;4992469;28;20050;-69
2024/03/16 02:45:09;;;;;;;1.17;0.93;;;16.90;49.30;;;;;;4990800;28;20111;-69
2024/03/16 02:47:38;;;;;;;1.42;1.27;;;16.90;49.30;;;;;;4983875;28;20053;-69
2024/03/16 02:50:10;;;;;;;1.52;1.35;;;16.80;49.30;;;;;;5000278;28;20557;-69
2024/03/16 02:52:38;;;;;;;4.90;2.25;;;16.90;49.40;;;;;;4978543;28;20085;-70
2024/03/16 02:55:07;;;;;;;7.25;1.40;;;16.90;49.30;;;;;;4986113;28;20862;-73
2024/03/16 02:57:35;;;;;;;76.35;19.52;;;16.90;49.30;;;;;;4998601;28;20064;-71
2024/03/16 03:00:07;;;;;;;4.00;1.38;;;17.00;49.40;;;;;;5000042;28;20412;-71
2024/03/16 03:02:36;;;;;;;10.43;3.75;;;17.00;49.30;;;;;;4994948;28;20038;-69
2024/03/16 03:05:09;;;;;;;2.90;1.35;;;17.00;49.20;;;;;;4991690;28;20119;-71
2024/03/16 03:07:38;;;;;;;2.95;1.60;;;17.00;49.30;;;;;;4989763;28;20080;-69
2024/03/16 03:10:07;;;;;;;1.67;1.25;;;17.10;49.40;;;;;;4997439;28;20049;-70
2024/03/16 03:12:36;;;;;;;4.75;1.40;;;17.10;49.40;;;;;;5013899;28;20081;-69
2024/03/16 03:15:06;;;;;;;3.45;1.90;;;17.10;49.30;;;;;;4990496;28;20065;-69
2024/03/16 03:17:33;;;;;;;7.10;2.17;;;17.20;49.70;;;;;;4997401;28;20136;-70
2024/03/16 03:20:04;;;;;;;7.82;3.53;;;17.20;49.20;;;;;;5002539;28;20052;-70
2024/03/16 03:22:32;;;;;;;5.43;1.58;;;17.20;49.20;;;;;;4998176;28;20061;-68
2024/03/16 03:25:01;;;;;;;1.02;1.00;;;17.10;49.20;;;;;;4976433;28;20072;-72
2024/03/16 03:27:30;;;;;;;6.35;2.65;;;17.00;49.30;;;;;;5001246;28;20508;-67
2024/03/16 03:29:59;;;;;;;2.83;1.10;;;16.90;49.50;;;;;;4999195;28;20071;-69
2024/03/16 03:32:28;;;;;;;2.85;1.15;;;16.80;49.60;;;;;;5013315;28;20054;-68
2024/03/16 03:34:56;;;;;;;1.25;0.80;;;16.80;49.60;;;;;;4991918;28;20065;-69
2024/03/16 03:37:24;;;;;;;1.38;1.00;;;16.80;49.60;;;;;;4981008;28;20052;-70
2024/03/16 03:39:53;;;;;;;0.95;0.80;;;16.90;49.50;;;;;;5010635;28;20073;-69
2024/03/16 03:42:25;;;;;;;0.90;0.80;;;16.90;49.50;;;;;;4999335;28;20057;-69
2024/03/16 03:45:10;;;;;;;4.75;1.30;;;16.90;49.40;;;;;;4988925;28;20099;-71
2024/03/16 03:48:00;;;;;;;0.73;0.73;;;16.90;49.30;;;;;;5016095;28;20072;-69
2024/03/16 03:50:31;;;;;;;2.88;1.17;;;17.00;49.30;;;;;;4990340;28;20672;-71
2024/03/16 03:53:02;;;;;;;2.78;1.60;;;17.00;49.30;;;;;;4987997;28;20136;-70
2024/03/16 03:55:30;;;;;;;2.50;1.45;;;17.00;49.10;;;;;;4973873;28;20131;-69
2024/03/16 03:58:02;;;;;;;0.80;0.80;;;17.00;49.10;;;;;;5013051;28;20053;-70
2024/03/16 04:00:34;;;;;;;1.70;1.13;;;17.00;49.20;;;;;;4998974;28;20132;-69
2024/03/16 04:03:07;;;;;;;1.60;1.20;;;17.00;49.70;;;;;;4975617;28;20136;-70
2024/03/16 04:05:38;;;;;;;7.13;1.83;;;17.00;49.10;;;;;;5014717;28;20164;-69
2024/03/16 04:08:11;;;;;;;1.38;1.13;;;17.00;49.10;;;;;;4998167;28;20061;-70
2024/03/16 04:10:40;;;;;;;0.70;0.70;;;16.90;49.70;;;;;;4999772;28;20044;-70
2024/03/16 04:13:08;;;;;;;0.30;0.30;;;16.80;49.20;;;;;;4990917;28;20458;-70
2024/03/16 04:15:37;;;;;;;3.13;0.70;;;16.70;49.30;;;;;;4980286;28;20045;-68
2024/03/16 04:18:06;;;;;;;4.55;0.80;;;16.70;49.50;;;;;;4997965;28;20081;-68
2024/03/16 04:20:34;;;;;;;1.23;0.65;;;16.70;49.60;;;;;;4998112;28;20668;-69
2024/03/16 04:23:03;;;;;;;1.38;0.70;;;16.70;49.60;;;;;;5005732;28;20139;-69
2024/03/16 04:25:31;;;;;;;3.20;0.95;;;16.70;49.50;;;;;;4984395;28;20057;-68
2024/03/16 04:28:00;;;;;;;1.95;1.00;;;16.60;49.60;;;;;;4981212;28;20077;-71
2024/03/16 04:30:28;;;;;;;0.73;0.70;;;16.60;49.60;;;;;;4982359;28;20061;-68
2024/03/16 04:32:57;;;;;;;1.52;1.00;;;16.60;49.70;;;;;;4990414;28;20480;-68
2024/03/16 04:35:25;;;;;;;1.00;0.98;;;16.60;49.70;;;;;;5012002;28;20397;-67
2024/03/16 04:37:54;;;;;;;0.63;0.63;;;16.70;49.60;;;;;;4996288;28;20057;-72
2024/03/16 04:40:23;;;;;;;10.48;1.80;;;16.70;49.60;;;;;;4993661;28;20123;-69
2024/03/16 04:42:51;;;;;;;2.75;1.38;;;16.70;49.60;;;;;;4975054;28;20049;-69
2024/03/16 04:45:20;;;;;;;1.23;1.13;;;16.80;49.60;;;;;;5002385;28;20059;-68
2024/03/16 04:47:48;;;;;;;1.55;0.73;;;16.70;49.60;;;;;;5000002;28;20057;-72
2024/03/16 04:50:17;;;;;;;2.80;1.17;;;16.70;49.50;;;;;;5003119;28;20480;-70
2024/03/16 04:52:45;;;;;;;0.68;0.68;;;16.70;49.60;;;;;;4985214;28;20050;-69
2024/03/16 04:55:14;;;;;;;1.35;1.10;;;16.70;49.70;;;;;;4996761;28;20055;-68
2024/03/16 04:57:42;;;;;;;3.22;1.30;;;16.80;49.70;;;;;;4997148;28;20088;-69
2024/03/16 05:00:12;;;;;;;1.10;0.95;;;16.80;49.60;;;;;;5013228;28;20582;-70
2024/03/16 05:02:41;;;;;;;1.95;1.27;;;16.80;49.80;;;;;;5012855;28;20701;-70
2024/03/16 05:05:09;;;;;;;1.25;1.15;;;16.80;49.70;;;;;;5005111;28;20056;-71
2024/03/16 05:07:38;;;;;;;4.68;1.33;;;16.80;49.70;;;;;;5016461;28;20064;-70
2024/03/16 05:10:08;;;;;;;1.17;0.98;;;16.80;49.60;;;;;;5004176;28;20115;-72
2024/03/16 05:12:37;;;;;;;3.22;1.63;;;16.80;49.70;;;;;;5018390;28;20141;-69
2024/03/16 05:15:07;;;;;;;1.73;1.10;;;16.90;49.80;;;;;;5007639;28;20064;-69
2024/03/16 05:17:39;;;;;;;2.65;1.15;;;16.90;49.80;;;;;;5007094;28;20083;-69
2024/03/16 05:20:10;;;;;;;1.60;1.10;;;16.90;49.80;;;;;;5011098;28;20061;-69
2024/03/16 05:22:38;;;;;;;1.10;1.00;;;16.80;49.80;;;;;;4996880;28;20488;-71
2024/03/16 05:25:07;;;;;;;1.83;1.25;;;16.90;49.90;;;;;;4977167;28;20065;-68
2024/03/16 05:27:36;;;;;;;4.20;1.40;;;16.80;49.90;;;;;;4999825;28;20057;-72
2024/03/16 05:30:07;;;;;;;1.23;1.13;;;16.80;50.00;;;;;;5013741;28;20115;-69
2024/03/16 05:32:36;;;;;;;1.85;1.38;;;16.80;49.90;;;;;;4998748;28;20049;-69
2024/03/16 05:35:06;;;;;;;1.80;1.17;;;16.80;50.00;;;;;;5006198;28;20045;-69
2024/03/16 05:37:35;;;;;;;1.27;1.10;;;16.80;50.00;;;;;;5001518;28;20093;-69
2024/03/16 05:40:05;;;;;;;2.00;1.30;;;16.80;50.00;;;;;;4999249;28;20169;-72
2024/03/16 05:42:37;;;;;;;0.85;0.85;;;16.70;50.00;;;;;;4997985;28;20053;-63
2024/03/16 05:45:07;;;;;;;4.45;1.40;;;16.70;50.20;;;;;;5005198;28;20108;-64
2024/03/16 05:47:36;;;;;;;2.70;1.27;;;16.60;50.20;;;;;;5011021;28;20057;-64
2024/03/16 05:50:05;;;;;;;2.13;1.45;;;16.60;50.30;;;;;;5001739;28;20046;-60
2024/03/16 05:52:34;;;;;;;3.67;1.23;;;16.60;50.30;;;;;;4996921;28;20093;-62
2024/03/16 05:55:02;;;;;;;0.80;0.80;;;16.70;50.30;;;;;;4994078;28;20508;-61
2024/03/16 05:57:30;;;;;;;2.45;1.10;;;16.60;50.30;;;;;;5015348;28;20103;-63
2024/03/16 05:59:59;;;;;;;3.97;1.33;;;16.70;50.40;;;;;;5008494;28;20045;-61
2024/03/16 06:02:27;;;;;;;5.35;1.45;;;16.70;50.40;;;;;;4997096;28;20811;-61
2024/03/16 06:04:55;;;;;;;1.65;1.05;;;16.70;50.50;;;;;;4975141;28;20350;-61
2024/03/16 06:07:24;;;;;;;2.35;1.63;;;16.70;50.40;;;;;;4999097;28;20067;-61
2024/03/16 06:09:52;;;;;;;2.17;1.15;;;16.70;50.50;;;;;;5007506;28;20056;-61
2024/03/16 06:12:20;;;;;;;2.70;1.30;;;16.70;50.50;;;;;;4995501;28;20057;-65
2024/03/16 06:14:49;;;;;;;2.92;1.30;;;16.70;50.50;;;;;;4994674;28;20063;-62
2024/03/16 06:17:17;;;;;;;2.22;1.00;;;16.80;50.60;;;;;;4997972;28;20053;-62
2024/03/16 06:19:49;;;;;;;11.98;1.50;;;16.80;50.50;;;;;;5010782;28;20053;-64
2024/03/16 06:22:18;;;;;;;1.10;1.00;;;16.90;50.50;;;;;;5008546;28;20132;-62
2024/03/16 06:24:47;;;;;;;2.28;1.13;;;16.90;50.40;;;;;;4991141;28;20107;-60
2024/03/16 06:27:21;;;;;;;2.03;1.10;;;16.90;50.50;;;;;;4993711;28;20137;-63
2024/03/16 06:29:52;;;;;;;3.58;1.38;;;16.90;50.40;;;;;;4999653;28;20061;-62
2024/03/16 06:32:21;;;;;;;2.92;2.15;;;16.90;50.50;;;;;;4999889;28;20542;-63
2024/03/16 06:34:49;;;;;;;5.93;2.20;;;16.80;50.60;;;;;;4994539;28;20127;-60
2024/03/16 06:37:18;;;;;;;1.48;1.10;;;16.80;50.70;;;;;;4998543;28;20046;-62
2024/03/16 06:39:47;;;;;;;4.50;1.65;;;16.80;50.70;;;;;;5012192;28;20196;-63
2024/03/16 06:42:15;;;;;;;2.28;1.50;;;16.70;50.80;;;;;;4995660;28;20053;-61
2024/03/16 06:44:44;;;;;;;5.03;1.60;;;16.60;51.00;;;;;;4996323;28;20062;-61
2024/03/16 06:47:12;;;;;;;2.40;1.90;;;16.60;51.20;;;;;;5005045;28;20049;-60
2024/03/16 06:49:41;;;;;;;4.38;1.30;;;16.80;51.40;;;;;;4996182;28;20909;-61
2024/03/16 06:52:10;;;;;;;8.05;1.25;;;17.00;51.50;;;;;;4997129;28;20057;-62
2024/03/16 06:54:38;;;;;;;2.08;1.70;;;17.40;51.30;;;;;;4997445;28;20562;-66
2024/03/16 06:57:08;;;;;;;2.67;1.15;;;17.60;51.00;;;;;;4969381;28;20103;-61
2024/03/16 06:59:37;;;;;;;5.88;1.45;;;17.70;50.70;;;;;;5012396;28;20057;-63
2024/03/16 07:02:05;;;;;;;3.97;1.55;;;17.80;50.50;;;;;;5012843;28;20137;-66
2024/03/16 07:04:34;;;;;;;3.35;1.73;;;17.60;50.40;;;;;;5007903;28;20526;-63
2024/03/16 07:07:02;;;;;;;2.83;1.58;;;17.50;50.60;;;;;;4994358;28;20080;-64
2024/03/16 07:09:31;;;;;;;1.98;1.50;;;17.40;50.70;;;;;;4996638;28;20456;-68
2024/03/16 07:11:59;;;;;;;5.72;1.50;;;17.40;50.80;;;;;;5013984;28;20558;-69
2024/03/16 07:14:28;;;;;;;1.30;1.15;;;17.40;51.30;;;;;;4987597;28;20076;-70
2024/03/16 07:16:56;;;;;;;6.45;1.25;;;17.50;50.90;;;;;;4993377;28;20057;-69
2024/03/16 07:19:25;;;;;;;3.72;1.88;;;17.50;50.80;;;;;;4992351;28;20642;-74
2024/03/16 07:21:54;;;;;;;16.40;2.10;;;17.50;50.80;;;;;;4995372;28;20054;-71
2024/03/16 07:24:22;;;;;;;2.92;1.30;;;17.40;50.80;;;;;;4990707;28;20045;-74
2024/03/16 07:26:51;;;;;;;2.20;1.50;;;17.40;51.00;;;;;;4995808;28;20064;-68
2024/03/16 07:29:20;;;;;;;1.60;1.50;;;17.40;51.00;;;;;;4999935;28;20057;-69
2024/03/16 07:31:49;;;;;;;1.95;1.55;;;17.40;51.00;;;;;;4998773;28;20053;-69
2024/03/16 07:34:21;;;;;;;3.80;1.40;;;17.40;51.00;;;;;;4980600;28;20705;-68
2024/03/16 07:36:50;;;;;;;1.52;1.10;;;17.40;51.10;;;;;;4997332;28;20123;-68
2024/03/16 07:39:19;;;;;;;6.88;3.20;;;17.50;51.10;;;;;;4998242;28;20058;-67
2024/03/16 07:41:48;;;;;;;1.20;1.08;;;17.60;51.00;;;;;;4992850;28;20064;-68
2024/03/16 07:44:20;;;;;;;2.05;1.40;;;17.60;50.90;;;;;;4978757;28;21171;-68
2024/03/16 07:46:48;;;;;;;1.35;0.90;;;17.70;50.80;;;;;;4998744;28;20232;-66
2024/03/16 07:49:17;;;;;;;1.63;1.00;;;17.80;50.90;;;;;;5010859;28;20053;-69
2024/03/16 07:51:45;;;;;;;2.08;1.15;;;18.00;51.10;;;;;;5001347;28;20084;-68
2024/03/16 07:54:15;;;;;;;2.40;1.17;;;18.40;51.20;;;;;;5015750;28;20746;-67
2024/03/16 07:56:43;;;;;;;3.35;1.70;;;18.90;50.70;;;;;;4999903;28;20520;-70
2024/03/16 07:59:14;;;;;;;4.60;2.28;;;19.20;50.30;;;;;;4994452;28;20144;-68
2024/03/16 08:01:43;;;;;;;2.42;1.35;;;19.50;49.90;;;;;;4990187;28;20045;-68
2024/03/16 08:04:11;;;;;;;4.75;2.55;;;19.50;49.50;;;;;;5011883;28;20081;-64
2024/03/16 08:06:40;;;;;;;1.55;1.10;;;19.60;49.60;;;;;;5009168;28;20053;-66
2024/03/16 08:09:11;;;;;;;1.90;1.30;;;19.70;49.30;;;;;;4971722;28;20657;-64
2024/03/16 08:11:41;;;;;;;5.05;1.30;;;19.90;49.40;;;;;;4994488;28;20146;-64
2024/03/16 08:14:15;;;;;;;1.45;1.17;;;20.10;49.20;;;;;;4989090;28;20068;-65
2024/03/16 08:16:44;;;;;;;1.33;1.10;;;20.20;49.00;;;;;;4991570;28;20645;-67
2024/03/16 08:19:14;;;;;;;2.15;1.20;;;20.40;48.90;;;;;;4987043;28;20181;-67
2024/03/16 08:21:45;;;;;;;5.90;2.55;;;20.40;48.60;;;;;;4977478;28;20049;-67
2024/03/16 08:24:16;;;;;;;0.80;0.80;;;20.50;48.70;;;;;;4999509;28;20052;-65
2024/03/16 08:26:44;;;;;;;6.72;2.58;;;20.50;48.40;;;;;;4979203;28;20512;-66
2024/03/16 08:29:16;;;;;;;2.50;1.27;;;20.30;48.10;;;;;;4991307;28;20065;-65
2024/03/16 08:31:45;;;;;;;14.18;2.28;;;20.10;48.40;;;;;;5013607;28;20049;-68
2024/03/16 08:34:13;;;;;;;4.38;1.95;;;19.80;48.40;;;;;;5009635;28;21841;-68
2024/03/16 08:36:41;;;;;;;3.40;1.67;;;19.70;48.70;;;;;;4998328;28;20476;-67
2024/03/16 08:39:11;;;;;;;2.67;1.60;;;19.70;49.00;;;;;;4987961;28;20737;-66
2024/03/16 08:41:39;;;;;;;1.63;1.50;;;19.70;49.10;;;;;;4993571;28;20516;-64
2024/03/16 08:44:08;;;;;;;1.45;1.35;;;19.70;49.60;;;;;;4978303;28;20053;-69
2024/03/16 08:46:36;;;;;;;2.28;1.00;;;19.70;49.10;;;;;;4997815;28;20061;-67
2024/03/16 08:49:05;;;;;;;4.07;1.60;;;19.90;49.30;;;;;;4965898;28;20042;-66
2024/03/16 08:51:33;;;;;;;4.07;1.98;;;20.20;49.00;;;;;;5008900;28;20103;-66
2024/03/16 08:54:02;;;;;;;34.63;12.50;;;20.30;48.90;;;;;;4997789;28;20054;-68
2024/03/16 08:56:31;;;;;;;5.38;1.50;;;20.40;48.50;;;;;;5011580;28;20057;-67
2024/03/16 08:59:02;;;;;;;17.05;6.43;;;20.50;48.50;;;;;;5005026;28;20143;-68
2024/03/16 09:01:31;;;;;;;26.25;9.05;;;20.80;48.60;;;;;;4999128;28;20077;-67
2024/03/16 09:04:00;;;;;;;3.03;1.60;;;21.10;48.40;;;;;;5010251;28;20065;-66
2024/03/16 09:06:29;;;;;;;2.65;1.48;;;21.90;49.00;;;;;;4995375;28;20056;-70
2024/03/16 09:08:59;;;;;;;3.63;1.92;;;23.00;48.00;;;;;;4972733;28;20150;-65
2024/03/16 09:11:27;;;;;;;7.07;1.48;;;23.30;46.80;;;;;;5006361;28;20111;-66
2024/03/16 09:13:56;;;;;;;12.18;3.60;;;23.40;46.20;;;;;;4995323;28;20144;-67
2024/03/16 09:16:24;;;;;;;13.25;4.45;;;23.40;46.20;;;;;;4991389;28;20202;-70
2024/03/16 09:18:53;;;;;;;9.40;1.90;;;23.40;46.00;;;;;;5005533;28;20060;-68
2024/03/16 09:21:22;;;;;;;2.08;1.10;;;23.30;45.90;;;;;;4993864;28;20588;-67
2024/03/16 09:23:50;;;;;;;10.52;3.25;;;23.30;46.10;;;;;;4995766;28;20492;-67
2024/03/16 09:26:18;;;;;;;4.40;2.03;;;23.50;46.20;;;;;;4995984;28;20164;-65
2024/03/16 09:28:47;;;;;;;11.45;2.38;;;23.80;45.90;;;;;;5006745;28;20598;-65
2024/03/16 09:31:16;;;;;;;10.30;3.42;;;23.90;45.50;;;;;;4994213;28;20127;-69
2024/03/16 09:33:44;;;;;;;4.10;1.90;;;24.00;45.90;;;;;;4997863;28;20061;-68
2024/03/16 09:36:13;;;;;;;7.95;1.88;;;24.20;45.30;;;;;;4998744;28;20140;-67
2024/03/16 09:38:41;;;;;;;7.82;1.67;;;24.40;45.00;;;;;;4996798;28;20118;-69
2024/03/16 09:41:10;;;;;;;3.75;1.30;;;24.50;44.70;;;;;;4994114;28;20136;-70
2024/03/16 09:43:38;;;;;;;6.22;2.08;;;24.50;44.40;;;;;;4998309;28;20426;-68
2024/03/16 09:46:05;;;;;;;15.60;3.85;;;24.40;44.10;;;;;;4980337;28;20053;-67
2024/03/16 09:48:33;;;;;;;12.45;1.58;;;24.30;44.20;;;;;;5001046;28;20120;-69
2024/03/16 09:51:00;;;;;;;1.70;0.75;;;24.10;44.00;;;;;;4990212;28;20099;-67
2024/03/16 09:53:31;;;;;;;25.23;1.58;;;23.90;43.80;;;;;;4983512;28;20064;-70
2024/03/16 09:55:59;;;;;;;3.83;1.23;;;23.50;43.40;;;;;;4983095;28;20065;-69
2024/03/16 09:58:28;;;;;;;16.48;3.08;;;22.80;43.40;;;;;;4964228;28;20058;-66
2024/03/16 10:01:00;;;;;;;1.15;0.57;;;21.90;44.10;;;;;;4977546;28;20076;-68
2024/03/16 10:03:30;;;;;;;4.80;0.70;;;21.30;45.20;;;;;;4965032;28;20650;-67
2024/03/16 10:05:59;;;;;;;1.40;1.08;;;21.00;46.50;;;;;;4983241;28;20063;-65
2024/03/16 10:08:27;;;;;;;0.75;0.63;;;21.20;46.30;;;;;;4996798;28;20132;-69
2024/03/16 10:11:10;;;;;;;4.88;1.30;;;21.40;46.10;;;;;;4964518;28;20065;-67
2024/03/16 10:13:38;;;;;;;0.93;0.85;;;21.40;47.10;;;;;;4981686;28;20065;-68
2024/03/16 10:16:06;;;;;;;3.72;0.90;;;21.50;45.70;;;;;;4997751;28;20069;-66
2024/03/16 10:18:35;;;;;;;1.38;0.85;;;21.60;45.70;;;;;;4965637;28;20050;-67
2024/03/16 10:21:03;;;;;;;0.82;0.52;;;21.80;45.80;;;;;;4996479;28;20076;-69
2024/03/16 10:23:31;;;;;;;3.40;0.88;;;22.90;47.20;;;;;;4999428;28;20069;-67
2024/03/16 10:26:00;;;;;;;2.33;0.57;;;25.60;46.30;;;;;;4965949;28;20052;-69
2024/03/16 10:28:27;;;;;;;0.70;0.70;;;27.70;43.40;;;;;;4978527;28;20447;-70
2024/03/16 10:30:55;;;;;;;2.28;0.82;;;28.50;41.60;;;;;;4992776;28;20057;-68
2024/03/16 10:33:23;;;;;;;8.57;0.77;;;28.70;39.90;;;;;;5000523;28;20211;-66
2024/03/16 10:35:52;;;;;;;0.50;0.50;;;28.10;39.60;;;;;;4965713;28;20042;-68
2024/03/16 10:38:20;;;;;;;0.80;0.65;;;27.60;39.90;;;;;;4986856;28;20060;-66
2024/03/16 10:40:49;;;;;;;2.63;0.50;;;27.20;40.70;;;;;;4979932;28;20517;-70
2024/03/16 10:43:17;;;;;;;1.23;1.02;;;27.20;40.90;;;;;;4961910;28;20050;-69
2024/03/16 10:45:45;;;;;;;2.40;1.27;;;26.90;40.80;;;;;;4978352;28;20130;-65
2024/03/16 10:48:13;;;;;;;3.30;1.08;;;26.80;41.10;;;;;;5010251;28;20049;-68
2024/03/16 10:50:43;;;;;;;1.88;0.93;;;26.70;41.10;;;;;;5002203;28;20044;-56
2024/03/16 10:53:10;;;;;;;1.08;0.90;;;26.50;41.00;;;;;;4968036;28;20671;-54
2024/03/16 10:55:39;;;;;;;6.95;0.90;;;26.20;40.90;;;;;;4988675;28;20042;-51
2024/03/16 10:58:09;;;;;;;1.95;0.73;;;25.70;41.00;;;;;;4975679;28;20054;-58
2024/03/16 11:00:37;;;;;;;3.85;1.73;;;25.40;41.50;;;;;;4972982;28;20041;-59
2024/03/16 11:03:09;;;;;;;1.05;0.88;;;25.20;41.80;;;;;;4983016;28;20474;-64
2024/03/16 11:05:36;;;;;;;5.80;1.33;;;25.20;42.00;;;;;;4992187;28;20056;-56
2024/03/16 11:08:23;;;;;;;6.60;1.77;;;25.20;41.90;;;;;;4996893;28;20055;-52
2024/03/16 11:10:52;;;;;;;2.17;0.70;;;25.20;41.90;;;;;;4978106;28;20068;-72
2024/03/16 11:13:23;;;;;;;6.05;1.20;;;25.20;41.70;;;;;;4966259;28;20045;-73
2024/03/16 11:15:51;;;;;;;8.25;1.25;;;25.20;41.70;;;;;;4987509;28;20056;-72
2024/03/16 11:18:41;;;;;;;0.73;0.55;;;25.20;41.50;;;;;;4981625;28;20089;-72
2024/03/16 11:21:14;;;;;;;2.10;0.95;;;25.20;41.40;;;;;;4959502;28;20076;-72
2024/03/16 11:23:41;;;;;;;12.40;1.08;;;25.40;41.40;;;;;;4977261;28;20084;-71
2024/03/16 11:26:40;;;;;;;3.15;0.60;;;25.50;41.20;;;;;;4996993;28;20076;-72
2024/03/16 11:29:18;;;;;;;4.10;0.80;;;25.60;40.80;;;;;;4942913;28;20054;-74
2024/03/16 11:31:46;;;;;;;0.73;0.60;;;25.60;40.70;;;;;;4963449;28;20543;-69
2024/03/16 11:34:15;;;;;;;1.27;0.73;;;25.60;40.50;;;;;;4968722;28;20064;-72
2024/03/16 11:36:43;;;;;;;5.68;1.70;;;25.60;40.40;;;;;;4993704;28;20053;-75
2024/03/16 11:39:13;;;;;;;9.18;1.15;;;25.50;40.20;;;;;;4991708;28;20072;-72
2024/03/16 11:41:43;;;;;;;1.00;0.70;;;25.40;40.00;;;;;;5009993;28;20050;-74
2024/03/16 11:44:14;;;;;;;4.05;0.63;;;25.00;39.70;;;;;;5018735;28;20061;-70
2024/03/16 11:46:44;;;;;;;2.13;0.63;;;24.50;39.80;;;;;;4967164;28;20049;-73
2024/03/16 11:49:11;;;;;;;28.52;7.47;;;24.10;40.10;;;;;;4990101;28;20254;-72
2024/03/16 11:51:39;;;;;;;6.85;0.98;;;23.80;40.50;;;;;;4997036;28;20061;-75
2024/03/16 11:54:08;;;;;;;3.85;0.80;;;23.50;40.70;;;;;;4985476;28;21152;-71
2024/03/16 11:56:37;;;;;;;3.95;1.40;;;23.10;40.90;;;;;;4964354;28;20072;-71
2024/03/16 11:59:08;;;;;;;10.88;1.35;;;23.00;41.50;;;;;;4990271;28;20077;-74
2024/03/16 12:01:37;;;;;;;10.52;3.25;;;23.10;41.80;;;;;;4996493;28;20061;-74
2024/03/16 12:04:04;;;;;;;1.98;1.13;;;23.70;41.80;;;;;;4982137;28;20059;-72
2024/03/16 12:06:33;;;;;;;10.82;0.77;;;24.10;41.40;;;;;;4957569;28;20163;-73
2024/03/16 12:09:00;;;;;;;9.40;0.70;;;24.40;41.10;;;;;;4985074;28;20166;-73
2024/03/16 12:11:28;;;;;;;3.83;1.13;;;24.70;40.80;;;;;;4994664;28;20060;-73
2024/03/16 12:14:18;;;;;;;1.20;0.70;;;25.00;40.40;;;;;;4963721;28;20180;-70
2024/03/16 12:16:47;;;;;;;5.47;1.65;;;25.20;40.60;;;;;;4977666;28;20087;-71
2024/03/16 12:19:13;;;;;;;3.10;1.30;;;25.20;39.80;;;;;;4961779;28;20285;-69
2024/03/16 12:21:42;;;;;;;1.75;1.35;;;25.30;39.80;;;;;;5000167;28;20144;-70
2024/03/16 12:24:09;;;;;;;1.02;0.65;;;25.30;39.70;;;;;;4969107;28;20053;-71
2024/03/16 12:26:40;;;;;;;0.55;0.55;;;25.20;39.50;;;;;;4983842;28;20045;-71
2024/03/16 12:29:07;;;;;;;4.47;1.35;;;25.30;39.60;;;;;;4976878;28;20053;-72
2024/03/16 12:31:36;;;;;;;0.70;0.70;;;25.40;39.60;;;;;;5001935;28;20129;-71
2024/03/16 12:34:02;;;;;;;9.55;1.55;;;25.60;39.50;;;;;;4982587;28;20046;-73
2024/03/16 12:36:31;;;;;;;2.70;0.63;;;25.60;39.10;;;;;;4978223;28;20612;-73
2024/03/16 12:38:58;;;;;;;1.05;0.55;;;25.60;39.30;;;;;;4984874;28;20077;-71
2024/03/16 12:41:26;;;;;;;4.75;0.73;;;25.50;38.90;;;;;;4985740;28;20065;-70
2024/03/16 12:43:52;;;;;;;4.78;1.02;;;25.30;38.80;;;;;;4983093;28;20053;-70
2024/03/16 12:46:21;;;;;;;3.45;0.95;;;25.20;38.90;;;;;;5014359;28;20052;-70
2024/03/16 12:48:47;;;;;;;0.63;0.60;;;25.00;38.80;;;;;;4985174;28;20093;-69
2024/03/16 12:51:15;;;;;;;2.92;2.20;;;24.80;38.70;;;;;;4974658;28;21738;-69
2024/03/16 12:53:41;;;;;;;5.65;1.65;;;24.60;38.80;;;;;;4980662;28;20061;-69
2024/03/16 12:56:09;;;;;;;7.75;1.30;;;24.30;38.90;;;;;;4996018;28;20041;-69